sensor_id;sensor_type;location;lat;lon;timestamp;P1;durP1;ratioP1;P2;durP2;ratioP2
71083;SDS011;58741;52.672;13.548;2023-10-13T00:00:34;0.57;;;0.57;;
71083;SDS011;58741;52.672;13.548;2023-10-13T00:03:07;2.75;;;0.90;;
71083;SDS011;58741;52.672;13.548;2023-10-13T00:05:41;0.90;;;0.80;;
71083;SDS011;58741;52.672;13.548;2023-10-13T00:08:09;0.75;;;0.75;;
71083;SDS011;58741;52.672;13.548;2023-10-13T00:10:36;0.73;;;0.60;;
71083;SDS011;58741;52.672;13.548;2023-10-13T00:13:03;1.25;;;0.63;;
71083;SDS011;58741;52.672;13.548;2023-10-13T00:15:47;0.68;;;0.63;;
71083;SDS011;58741;52.672;13.548;2023-10-13T00:18:28;0.43;;;0.43;;
71083;SDS011;58741;52.672;13.548;2023-10-13T00:21:00;1.25;;;0.75;;
71083;SDS011;58741;52.672;13.548;2023-10-13T00:23:38;0.88;;;0.80;;
71083;SDS011;58741;52.672;13.548;2023-10-13T00:26:09;0.60;;;0.50;;
71083;SDS011;58741;52.672;13.548;2023-10-13T00:28:37;1.00;;;0.75;;
71083;SDS011;58741;52.672;13.548;2023-10-13T00:31:12;1.08;;;0.80;;
71083;SDS011;58741;52.672;13.548;2023-10-13T00:33:40;1.33;;;0.80;;
71083;SDS011;58741;52.672;13.548;2023-10-13T00:36:11;6.82;;;0.65;;
71083;SDS011;58741;52.672;13.548;2023-10-13T00:38:45;1.20;;;0.70;;
71083;SDS011;58741;52.672;13.548;2023-10-13T00:41:15;0.77;;;0.50;;
71083;SDS011;58741;52.672;13.548;2023-10-13T00:43:44;1.70;;;0.88;;
71083;SDS011;58741;52.672;13.548;2023-10-13T00:46:33;0.77;;;0.60;;
71083;SDS011;58741;52.672;13.548;2023-10-13T00:49:03;1.08;;;0.65;;
71083;SDS011;58741;52.672;13.548;2023-10-13T00:51:30;1.88;;;0.77;;
71083;SDS011;58741;52.672;13.548;2023-10-13T00:54:00;1.02;;;0.70;;
71083;SDS011;58741;52.672;13.548;2023-10-13T00:56:29;0.82;;;0.60;;
71083;SDS011;58741;52.672;13.548;2023-10-13T00:58:58;0.77;;;0.52;;
71083;SDS011;58741;52.672;13.548;2023-10-13T01:01:29;1.77;;;0.93;;
71083;SDS011;58741;52.672;13.548;2023-10-13T01:03:59;0.80;;;0.60;;
71083;SDS011;58741;52.672;13.548;2023-10-13T01:06:26;0.85;;;0.60;;
71083;SDS011;58741;52.672;13.548;2023-10-13T01:11:46;1.23;;;0.60;;
71083;SDS011;58741;52.672;13.548;2023-10-13T01:14:14;0.25;;;0.25;;
71083;SDS011;58741;52.672;13.548;2023-10-13T01:16:47;0.63;;;0.52;;
71083;SDS011;58741;52.672;13.548;2023-10-13T01:19:19;0.50;;;0.40;;
71083;SDS011;58741;52.672;13.548;2023-10-13T01:21:51;0.52;;;0.50;;
71083;SDS011;58741;52.672;13.548;2023-10-13T01:24:29;0.65;;;0.65;;
71083;SDS011;58741;52.672;13.548;2023-10-13T01:27:03;1.00;;;0.63;;
71083;SDS011;58741;52.672;13.548;2023-10-13T01:29:44;0.50;;;0.50;;
71083;SDS011;58741;52.672;13.548;2023-10-13T01:32:18;1.42;;;0.60;;
71083;SDS011;58741;52.672;13.548;2023-10-13T01:34:46;0.52;;;0.32;;
71083;SDS011;58741;52.672;13.548;2023-10-13T01:37:14;1.38;;;0.60;;
71083;SDS011;58741;52.672;13.548;2023-10-13T01:39:46;0.77;;;0.50;;
71083;SDS011;58741;52.672;13.548;2023-10-13T01:42:14;2.17;;;0.75;;
71083;SDS011;58741;52.672;13.548;2023-10-13T01:44:49;0.50;;;0.50;;
71083;SDS011;58741;52.672;13.548;2023-10-13T01:47:16;0.82;;;0.52;;
71083;SDS011;58741;52.672;13.548;2023-10-13T01:49:43;0.40;;;0.40;;
71083;SDS011;58741;52.672;13.548;2023-10-13T01:52:14;0.30;;;0.30;;
71083;SDS011;58741;52.672;13.548;2023-10-13T01:54:45;0.77;;;0.70;;
71083;SDS011;58741;52.672;13.548;2023-10-13T01:57:12;0.30;;;0.30;;
71083;SDS011;58741;52.672;13.548;2023-10-13T01:59:44;0.60;;;0.60;;
71083;SDS011;58741;52.672;13.548;2023-10-13T02:02:14;0.82;;;0.50;;
71083;SDS011;58741;52.672;13.548;2023-10-13T02:04:45;0.30;;;0.30;;
71083;SDS011;58741;52.672;13.548;2023-10-13T02:07:15;0.57;;;0.50;;
71083;SDS011;58741;52.672;13.548;2023-10-13T02:09:43;1.38;;;0.80;;
71083;SDS011;58741;52.672;13.548;2023-10-13T02:12:10;0.50;;;0.30;;
71083;SDS011;58741;52.672;13.548;2023-10-13T02:14:37;0.57;;;0.40;;
71083;SDS011;58741;52.672;13.548;2023-10-13T02:17:04;1.95;;;0.60;;
71083;SDS011;58741;52.672;13.548;2023-10-13T02:19:42;0.50;;;0.50;;
71083;SDS011;58741;52.672;13.548;2023-10-13T02:22:13;0.85;;;0.38;;
71083;SDS011;58741;52.672;13.548;2023-10-13T02:24:58;2.60;;;0.47;;
71083;SDS011;58741;52.672;13.548;2023-10-13T02:27:34;0.30;;;0.30;;
71083;SDS011;58741;52.672;13.548;2023-10-13T02:30:07;0.50;;;0.50;;
71083;SDS011;58741;52.672;13.548;2023-10-13T02:32:40;1.33;;;0.50;;
71083;SDS011;58741;52.672;13.548;2023-10-13T02:35:10;0.40;;;0.40;;
71083;SDS011;58741;52.672;13.548;2023-10-13T02:37:41;0.65;;;0.50;;
71083;SDS011;58741;52.672;13.548;2023-10-13T02:40:23;0.47;;;0.40;;
71083;SDS011;58741;52.672;13.548;2023-10-13T02:42:50;0.55;;;0.50;;
71083;SDS011;58741;52.672;13.548;2023-10-13T02:45:16;1.67;;;0.70;;
71083;SDS011;58741;52.672;13.548;2023-10-13T02:47:48;0.93;;;0.40;;
71083;SDS011;58741;52.672;13.548;2023-10-13T02:50:35;0.28;;;0.28;;
71083;SDS011;58741;52.672;13.548;2023-10-13T02:53:04;1.48;;;0.55;;
71083;SDS011;58741;52.672;13.548;2023-10-13T02:55:48;0.30;;;0.30;;
71083;SDS011;58741;52.672;13.548;2023-10-13T02:58:19;1.45;;;0.55;;
71083;SDS011;58741;52.672;13.548;2023-10-13T03:00:47;6.65;;;0.63;;
71083;SDS011;58741;52.672;13.548;2023-10-13T03:03:14;0.32;;;0.32;;
71083;SDS011;58741;52.672;13.548;2023-10-13T03:05:45;1.02;;;0.60;;
71083;SDS011;58741;52.672;13.548;2023-10-13T03:08:12;0.98;;;0.55;;
71083;SDS011;58741;52.672;13.548;2023-10-13T03:10:45;0.70;;;0.50;;
71083;SDS011;58741;52.672;13.548;2023-10-13T03:13:14;1.65;;;0.80;;
71083;SDS011;58741;52.672;13.548;2023-10-13T03:15:41;1.20;;;0.95;;
71083;SDS011;58741;52.672;13.548;2023-10-13T03:18:13;1.98;;;0.80;;
71083;SDS011;58741;52.672;13.548;2023-10-13T03:20:45;0.45;;;0.45;;
71083;SDS011;58741;52.672;13.548;2023-10-13T03:23:16;1.98;;;0.75;;
71083;SDS011;58741;52.672;13.548;2023-10-13T03:25:43;1.13;;;0.80;;
71083;SDS011;58741;52.672;13.548;2023-10-13T03:28:10;4.22;;;0.88;;
71083;SDS011;58741;52.672;13.548;2023-10-13T03:30:43;1.75;;;0.68;;
71083;SDS011;58741;52.672;13.548;2023-10-13T03:33:10;1.73;;;0.90;;
71083;SDS011;58741;52.672;13.548;2023-10-13T03:35:41;1.08;;;0.77;;
71083;SDS011;58741;52.672;13.548;2023-10-13T03:38:09;1.10;;;0.75;;
71083;SDS011;58741;52.672;13.548;2023-10-13T03:43:15;0.73;;;0.52;;
71083;SDS011;58741;52.672;13.548;2023-10-13T03:45:49;1.95;;;1.02;;
71083;SDS011;58741;52.672;13.548;2023-10-13T03:48:27;0.85;;;0.68;;
71083;SDS011;58741;52.672;13.548;2023-10-13T03:50:56;1.88;;;0.80;;
71083;SDS011;58741;52.672;13.548;2023-10-13T03:53:33;1.38;;;1.13;;
71083;SDS011;58741;52.672;13.548;2023-10-13T03:56:04;3.55;;;1.20;;
71083;SDS011;58741;52.672;13.548;2023-10-13T03:58:35;1.75;;;1.10;;
71083;SDS011;58741;52.672;13.548;2023-10-13T04:01:05;1.83;;;1.00;;
71083;SDS011;58741;52.672;13.548;2023-10-13T04:03:32;1.75;;;1.05;;
71083;SDS011;58741;52.672;13.548;2023-10-13T04:06:05;1.52;;;0.90;;
71083;SDS011;58741;52.672;13.548;2023-10-13T04:08:32;2.00;;;1.05;;
71083;SDS011;58741;52.672;13.548;2023-10-13T04:11:08;1.20;;;0.70;;
71083;SDS011;58741;52.672;13.548;2023-10-13T04:13:54;1.05;;;0.80;;
71083;SDS011;58741;52.672;13.548;2023-10-13T04:16:39;2.72;;;1.00;;
71083;SDS011;58741;52.672;13.548;2023-10-13T04:19:18;1.60;;;0.65;;
71083;SDS011;58741;52.672;13.548;2023-10-13T04:21:52;1.27;;;0.90;;
71083;SDS011;58741;52.672;13.548;2023-10-13T04:24:26;3.47;;;1.55;;
71083;SDS011;58741;52.672;13.548;2023-10-13T04:29:38;0.88;;;0.82;;
71083;SDS011;58741;52.672;13.548;2023-10-13T04:32:15;2.13;;;1.10;;
71083;SDS011;58741;52.672;13.548;2023-10-13T04:34:55;1.63;;;1.02;;
71083;SDS011;58741;52.672;13.548;2023-10-13T04:37:35;2.28;;;1.02;;
71083;SDS011;58741;52.672;13.548;2023-10-13T04:40:19;0.77;;;0.75;;
71083;SDS011;58741;52.672;13.548;2023-10-13T04:42:51;3.00;;;1.35;;
71083;SDS011;58741;52.672;13.548;2023-10-13T04:45:24;2.05;;;1.25;;
71083;SDS011;58741;52.672;13.548;2023-10-13T04:47:57;1.23;;;0.93;;
71083;SDS011;58741;52.672;13.548;2023-10-13T04:50:58;3.15;;;1.50;;
71083;SDS011;58741;52.672;13.548;2023-10-13T04:53:46;1.70;;;1.30;;
71083;SDS011;58741;52.672;13.548;2023-10-13T04:56:39;2.90;;;1.15;;
71083;SDS011;58741;52.672;13.548;2023-10-13T04:59:08;5.68;;;1.92;;
71083;SDS011;58741;52.672;13.548;2023-10-13T05:01:44;2.70;;;1.65;;
71083;SDS011;58741;52.672;13.548;2023-10-13T05:04:23;2.80;;;1.25;;
71083;SDS011;58741;52.672;13.548;2023-10-13T05:07:25;1.65;;;1.25;;
71083;SDS011;58741;52.672;13.548;2023-10-13T05:10:11;1.07;;;0.97;;
71083;SDS011;58741;52.672;13.548;2023-10-13T05:12:56;2.40;;;1.35;;
71083;SDS011;58741;52.672;13.548;2023-10-13T05:15:42;2.55;;;1.48;;
71083;SDS011;58741;52.672;13.548;2023-10-13T05:18:35;1.95;;;1.35;;
71083;SDS011;58741;52.672;13.548;2023-10-13T05:21:21;3.10;;;1.65;;
71083;SDS011;58741;52.672;13.548;2023-10-13T05:24:07;2.25;;;1.63;;
71083;SDS011;58741;52.672;13.548;2023-10-13T05:26:52;1.50;;;1.30;;
71083;SDS011;58741;52.672;13.548;2023-10-13T05:29:38;2.35;;;1.65;;
71083;SDS011;58741;52.672;13.548;2023-10-13T05:32:24;1.90;;;1.40;;
71083;SDS011;58741;52.672;13.548;2023-10-13T05:35:13;3.67;;;1.95;;
71083;SDS011;58741;52.672;13.548;2023-10-13T05:38:00;2.38;;;1.75;;
71083;SDS011;58741;52.672;13.548;2023-10-13T05:41:18;3.83;;;1.87;;
71083;SDS011;58741;52.672;13.548;2023-10-13T05:43:57;3.95;;;1.85;;
71083;SDS011;58741;52.672;13.548;2023-10-13T05:46:42;4.22;;;2.22;;
71083;SDS011;58741;52.672;13.548;2023-10-13T05:49:16;2.55;;;1.67;;
71083;SDS011;58741;52.672;13.548;2023-10-13T05:51:43;4.03;;;2.08;;
71083;SDS011;58741;52.672;13.548;2023-10-13T05:54:24;2.55;;;1.55;;
71083;SDS011;58741;52.672;13.548;2023-10-13T05:57:09;2.22;;;1.63;;
71083;SDS011;58741;52.672;13.548;2023-10-13T05:59:54;3.50;;;1.57;;
71083;SDS011;58741;52.672;13.548;2023-10-13T06:02:40;1.97;;;1.40;;
71083;SDS011;58741;52.672;13.548;2023-10-13T06:05:27;3.90;;;1.80;;
71083;SDS011;58741;52.672;13.548;2023-10-13T06:08:12;2.87;;;1.57;;
71083;SDS011;58741;52.672;13.548;2023-10-13T06:11:01;2.13;;;1.43;;
71083;SDS011;58741;52.672;13.548;2023-10-13T06:13:47;2.00;;;1.63;;
71083;SDS011;58741;52.672;13.548;2023-10-13T06:16:33;3.83;;;1.92;;
71083;SDS011;58741;52.672;13.548;2023-10-13T06:19:19;3.05;;;2.28;;
71083;SDS011;58741;52.672;13.548;2023-10-13T06:22:05;2.73;;;2.10;;
71083;SDS011;58741;52.672;13.548;2023-10-13T06:24:50;4.33;;;2.00;;
71083;SDS011;58741;52.672;13.548;2023-10-13T06:27:36;2.25;;;1.30;;
71083;SDS011;58741;52.672;13.548;2023-10-13T06:30:21;2.33;;;1.50;;
71083;SDS011;58741;52.672;13.548;2023-10-13T06:32:48;3.60;;;2.03;;
71083;SDS011;58741;52.672;13.548;2023-10-13T06:35:17;3.42;;;2.10;;
71083;SDS011;58741;52.672;13.548;2023-10-13T06:37:50;3.40;;;1.67;;
71083;SDS011;58741;52.672;13.548;2023-10-13T06:40:17;2.40;;;1.52;;
71083;SDS011;58741;52.672;13.548;2023-10-13T06:43:00;1.50;;;1.10;;
71083;SDS011;58741;52.672;13.548;2023-10-13T06:45:44;2.22;;;1.38;;
71083;SDS011;58741;52.672;13.548;2023-10-13T06:48:27;2.83;;;1.83;;
71083;SDS011;58741;52.672;13.548;2023-10-13T06:50:54;2.45;;;1.60;;
71083;SDS011;58741;52.672;13.548;2023-10-13T06:53:22;2.03;;;1.42;;
71083;SDS011;58741;52.672;13.548;2023-10-13T06:55:50;2.70;;;1.50;;
71083;SDS011;58741;52.672;13.548;2023-10-13T06:58:19;2.55;;;1.67;;
71083;SDS011;58741;52.672;13.548;2023-10-13T07:00:50;2.65;;;1.10;;
71083;SDS011;58741;52.672;13.548;2023-10-13T07:03:24;2.22;;;1.40;;
71083;SDS011;58741;52.672;13.548;2023-10-13T07:05:51;2.47;;;1.10;;
71083;SDS011;58741;52.672;13.548;2023-10-13T07:08:18;3.05;;;1.80;;
71083;SDS011;58741;52.672;13.548;2023-10-13T07:10:53;2.80;;;1.42;;
71083;SDS011;58741;52.672;13.548;2023-10-13T07:13:32;4.35;;;2.05;;
71083;SDS011;58741;52.672;13.548;2023-10-13T07:16:05;4.25;;;1.77;;
71083;SDS011;58741;52.672;13.548;2023-10-13T07:18:37;2.20;;;1.50;;
71083;SDS011;58741;52.672;13.548;2023-10-13T07:21:08;2.08;;;1.60;;
71083;SDS011;58741;52.672;13.548;2023-10-13T07:23:36;1.40;;;1.30;;
71083;SDS011;58741;52.672;13.548;2023-10-13T07:26:04;2.10;;;1.50;;
71083;SDS011;58741;52.672;13.548;2023-10-13T07:28:34;2.85;;;1.50;;
71083;SDS011;58741;52.672;13.548;2023-10-13T07:31:13;2.42;;;1.60;;
71083;SDS011;58741;52.672;13.548;2023-10-13T07:33:41;1.83;;;1.38;;
71083;SDS011;58741;52.672;13.548;2023-10-13T07:36:08;2.90;;;1.48;;
71083;SDS011;58741;52.672;13.548;2023-10-13T07:38:37;2.10;;;1.20;;
71083;SDS011;58741;52.672;13.548;2023-10-13T07:41:04;2.58;;;1.73;;
71083;SDS011;58741;52.672;13.548;2023-10-13T07:43:35;3.05;;;1.80;;
71083;SDS011;58741;52.672;13.548;2023-10-13T07:46:03;2.33;;;1.45;;
71083;SDS011;58741;52.672;13.548;2023-10-13T07:48:36;1.70;;;1.50;;
71083;SDS011;58741;52.672;13.548;2023-10-13T07:51:04;2.35;;;1.52;;
71083;SDS011;58741;52.672;13.548;2023-10-13T07:53:43;2.53;;;1.50;;
71083;SDS011;58741;52.672;13.548;2023-10-13T07:56:15;1.20;;;1.10;;
71083;SDS011;58741;52.672;13.548;2023-10-13T07:58:46;2.90;;;1.70;;
71083;SDS011;58741;52.672;13.548;2023-10-13T08:01:32;1.50;;;1.17;;
71083;SDS011;58741;52.672;13.548;2023-10-13T08:04:00;2.15;;;1.13;;
71083;SDS011;58741;52.672;13.548;2023-10-13T08:06:31;1.25;;;1.00;;
71083;SDS011;58741;52.672;13.548;2023-10-13T08:08:58;1.75;;;1.02;;
71083;SDS011;58741;52.672;13.548;2023-10-13T08:11:35;1.77;;;1.23;;
71083;SDS011;58741;52.672;13.548;2023-10-13T08:14:04;1.95;;;1.02;;
71083;SDS011;58741;52.672;13.548;2023-10-13T08:16:58;1.67;;;1.38;;
71083;SDS011;58741;52.672;13.548;2023-10-13T08:19:31;1.95;;;1.30;;
71083;SDS011;58741;52.672;13.548;2023-10-13T08:22:12;2.25;;;1.25;;
71083;SDS011;58741;52.672;13.548;2023-10-13T08:24:46;2.88;;;1.23;;
71083;SDS011;58741;52.672;13.548;2023-10-13T08:27:14;1.73;;;1.02;;
71083;SDS011;58741;52.672;13.548;2023-10-13T08:29:42;1.65;;;1.02;;
71083;SDS011;58741;52.672;13.548;2023-10-13T08:32:25;1.73;;;1.02;;
71083;SDS011;58741;52.672;13.548;2023-10-13T08:34:56;1.38;;;0.95;;
71083;SDS011;58741;52.672;13.548;2023-10-13T08:37:25;1.45;;;1.00;;
71083;SDS011;58741;52.672;13.548;2023-10-13T08:39:53;0.85;;;0.80;;
71083;SDS011;58741;52.672;13.548;2023-10-13T08:42:48;2.30;;;1.17;;
71083;SDS011;58741;52.672;13.548;2023-10-13T08:45:39;1.08;;;0.90;;
71083;SDS011;58741;52.672;13.548;2023-10-13T08:48:11;1.60;;;1.30;;
71083;SDS011;58741;52.672;13.548;2023-10-13T08:50:42;1.35;;;1.10;;
71083;SDS011;58741;52.672;13.548;2023-10-13T08:53:22;2.28;;;1.30;;
71083;SDS011;58741;52.672;13.548;2023-10-13T08:58:39;1.90;;;0.97;;
71083;SDS011;58741;52.672;13.548;2023-10-13T09:01:23;1.17;;;0.85;;
71083;SDS011;58741;52.672;13.548;2023-10-13T09:04:02;1.00;;;0.90;;
71083;SDS011;58741;52.672;13.548;2023-10-13T09:06:50;1.55;;;0.68;;
71083;SDS011;58741;52.672;13.548;2023-10-13T09:09:26;1.17;;;0.90;;
71083;SDS011;58741;52.672;13.548;2023-10-13T09:11:54;1.80;;;1.05;;
71083;SDS011;58741;52.672;13.548;2023-10-13T09:14:37;1.02;;;0.90;;
71083;SDS011;58741;52.672;13.548;2023-10-13T09:17:08;1.77;;;0.82;;
71083;SDS011;58741;52.672;13.548;2023-10-13T09:22:24;1.13;;;0.80;;
71083;SDS011;58741;52.672;13.548;2023-10-13T09:25:04;1.27;;;1.10;;
71083;SDS011;58741;52.672;13.548;2023-10-13T09:27:31;0.93;;;0.85;;
71083;SDS011;58741;52.672;13.548;2023-10-13T09:30:00;0.93;;;0.80;;
71083;SDS011;58741;52.672;13.548;2023-10-13T09:32:44;1.02;;;0.80;;
71083;SDS011;58741;52.672;13.548;2023-10-13T09:35:18;1.40;;;1.00;;
71083;SDS011;58741;52.672;13.548;2023-10-13T09:37:49;1.67;;;1.13;;
71083;SDS011;58741;52.672;13.548;2023-10-13T09:40:17;1.05;;;0.75;;
71083;SDS011;58741;52.672;13.548;2023-10-13T09:43:00;1.05;;;0.70;;
71083;SDS011;58741;52.672;13.548;2023-10-13T09:45:35;2.17;;;1.33;;
71083;SDS011;58741;52.672;13.548;2023-10-13T09:48:10;1.92;;;1.10;;
71083;SDS011;58741;52.672;13.548;2023-10-13T09:50:43;1.05;;;0.75;;
71083;SDS011;58741;52.672;13.548;2023-10-13T09:53:12;1.15;;;0.98;;
71083;SDS011;58741;52.672;13.548;2023-10-13T09:55:46;1.27;;;1.00;;
71083;SDS011;58741;52.672;13.548;2023-10-13T09:58:16;3.88;;;1.30;;
71083;SDS011;58741;52.672;13.548;2023-10-13T10:00:48;1.48;;;0.85;;
71083;SDS011;58741;52.672;13.548;2023-10-13T10:03:24;1.85;;;1.27;;
71083;SDS011;58741;52.672;13.548;2023-10-13T10:06:01;2.83;;;1.13;;
71083;SDS011;58741;52.672;13.548;2023-10-13T10:08:43;1.58;;;1.30;;
71083;SDS011;58741;52.672;13.548;2023-10-13T10:14:10;1.27;;;1.08;;
71083;SDS011;58741;52.672;13.548;2023-10-13T10:17:04;1.30;;;0.90;;
71083;SDS011;58741;52.672;13.548;2023-10-13T10:22:32;1.00;;;0.68;;
71083;SDS011;58741;52.672;13.548;2023-10-13T10:25:01;1.40;;;0.80;;
71083;SDS011;58741;52.672;13.548;2023-10-13T10:27:32;1.40;;;1.10;;
71083;SDS011;58741;52.672;13.548;2023-10-13T10:30:00;2.20;;;0.90;;
71083;SDS011;58741;52.672;13.548;2023-10-13T10:32:33;1.88;;;0.95;;
71083;SDS011;58741;52.672;13.548;2023-10-13T10:35:02;0.80;;;0.70;;
71083;SDS011;58741;52.672;13.548;2023-10-13T10:37:34;1.50;;;0.90;;
71083;SDS011;58741;52.672;13.548;2023-10-13T10:40:07;1.50;;;1.00;;
71083;SDS011;58741;52.672;13.548;2023-10-13T10:42:34;2.05;;;1.05;;
71083;SDS011;58741;52.672;13.548;2023-10-13T10:45:02;1.13;;;0.80;;
71083;SDS011;58741;52.672;13.548;2023-10-13T10:47:35;1.70;;;1.08;;
71083;SDS011;58741;52.672;13.548;2023-10-13T10:50:06;1.17;;;0.95;;
71083;SDS011;58741;52.672;13.548;2023-10-13T10:52:52;1.85;;;1.38;;
71083;SDS011;58741;52.672;13.548;2023-10-13T10:55:23;1.13;;;0.90;;
71083;SDS011;58741;52.672;13.548;2023-10-13T10:57:58;0.68;;;0.65;;
71083;SDS011;58741;52.672;13.548;2023-10-13T11:00:27;2.60;;;0.90;;
71083;SDS011;58741;52.672;13.548;2023-10-13T11:03:08;0.93;;;0.63;;
71083;SDS011;58741;52.672;13.548;2023-10-13T11:05:45;2.55;;;1.38;;
71083;SDS011;58741;52.672;13.548;2023-10-13T11:08:23;0.88;;;0.75;;
71083;SDS011;58741;52.672;13.548;2023-10-13T11:13:41;0.98;;;0.85;;
71083;SDS011;58741;52.672;13.548;2023-10-13T11:16:23;0.70;;;0.70;;
71083;SDS011;58741;52.672;13.548;2023-10-13T11:19:03;1.38;;;0.98;;
71083;SDS011;58741;52.672;13.548;2023-10-13T11:21:33;0.80;;;0.60;;
71083;SDS011;58741;52.672;13.548;2023-10-13T11:24:03;1.98;;;1.30;;
71083;SDS011;58741;52.672;13.548;2023-10-13T11:26:35;0.77;;;0.55;;
71083;SDS011;58741;52.672;13.548;2023-10-13T11:29:19;1.67;;;1.00;;
71083;SDS011;58741;52.672;13.548;2023-10-13T11:31:56;1.25;;;0.80;;
71083;SDS011;58741;52.672;13.548;2023-10-13T11:34:26;2.00;;;0.90;;
71083;SDS011;58741;52.672;13.548;2023-10-13T11:37:06;1.00;;;0.90;;
71083;SDS011;58741;52.672;13.548;2023-10-13T11:39:53;1.15;;;0.80;;
71083;SDS011;58741;52.672;13.548;2023-10-13T11:42:20;0.70;;;0.70;;
71083;SDS011;58741;52.672;13.548;2023-10-13T11:44:47;1.95;;;1.33;;
71083;SDS011;58741;52.672;13.548;2023-10-13T11:47:27;2.58;;;0.93;;
71083;SDS011;58741;52.672;13.548;2023-10-13T11:50:13;1.27;;;1.00;;
71083;SDS011;58741;52.672;13.548;2023-10-13T11:52:40;1.05;;;0.80;;
71083;SDS011;58741;52.672;13.548;2023-10-13T11:55:07;1.58;;;0.82;;
71083;SDS011;58741;52.672;13.548;2023-10-13T11:57:34;1.20;;;1.00;;
71083;SDS011;58741;52.672;13.548;2023-10-13T12:00:01;0.90;;;0.82;;
71083;SDS011;58741;52.672;13.548;2023-10-13T12:02:47;2.08;;;0.98;;
71083;SDS011;58741;52.672;13.548;2023-10-13T12:05:33;1.15;;;0.90;;
71083;SDS011;58741;52.672;13.548;2023-10-13T12:08:15;0.85;;;0.70;;
71083;SDS011;58741;52.672;13.548;2023-10-13T12:10:48;0.55;;;0.55;;
71083;SDS011;58741;52.672;13.548;2023-10-13T12:13:26;0.85;;;0.80;;
71083;SDS011;58741;52.672;13.548;2023-10-13T12:15:53;2.40;;;1.20;;
71083;SDS011;58741;52.672;13.548;2023-10-13T12:18:23;1.20;;;1.10;;
71083;SDS011;58741;52.672;13.548;2023-10-13T12:20:50;4.55;;;1.15;;
71083;SDS011;58741;52.672;13.548;2023-10-13T12:23:16;1.10;;;1.00;;
71083;SDS011;58741;52.672;13.548;2023-10-13T12:25:45;1.80;;;1.15;;
71083;SDS011;58741;52.672;13.548;2023-10-13T12:28:24;1.15;;;1.00;;
71083;SDS011;58741;52.672;13.548;2023-10-13T12:30:54;1.58;;;1.20;;
71083;SDS011;58741;52.672;13.548;2023-10-13T12:33:26;0.90;;;0.80;;
71083;SDS011;58741;52.672;13.548;2023-10-13T12:36:03;0.82;;;0.70;;
71083;SDS011;58741;52.672;13.548;2023-10-13T12:38:33;1.80;;;0.90;;
71083;SDS011;58741;52.672;13.548;2023-10-13T12:41:13;0.73;;;0.73;;
71083;SDS011;58741;52.672;13.548;2023-10-13T12:44:02;0.90;;;0.70;;
71083;SDS011;58741;52.672;13.548;2023-10-13T12:46:49;2.05;;;0.90;;
71083;SDS011;58741;52.672;13.548;2023-10-13T12:49:35;1.77;;;0.60;;
71083;SDS011;58741;52.672;13.548;2023-10-13T12:52:09;0.63;;;0.60;;
71083;SDS011;58741;52.672;13.548;2023-10-13T12:54:43;0.77;;;0.73;;
71083;SDS011;58741;52.672;13.548;2023-10-13T12:57:25;2.20;;;1.20;;
71083;SDS011;58741;52.672;13.548;2023-10-13T12:59:53;1.45;;;1.08;;
71083;SDS011;58741;52.672;13.548;2023-10-13T13:02:21;0.80;;;0.80;;
71083;SDS011;58741;52.672;13.548;2023-10-13T13:04:52;1.40;;;1.05;;
71083;SDS011;58741;52.672;13.548;2023-10-13T13:07:32;4.82;;;0.95;;
71083;SDS011;58741;52.672;13.548;2023-10-13T13:10:10;1.98;;;0.75;;
71083;SDS011;58741;52.672;13.548;2023-10-13T13:12:38;1.38;;;0.82;;
71083;SDS011;58741;52.672;13.548;2023-10-13T13:15:05;1.75;;;1.00;;
71083;SDS011;58741;52.672;13.548;2023-10-13T13:17:35;0.50;;;0.50;;
71083;SDS011;58741;52.672;13.548;2023-10-13T13:20:03;1.10;;;1.00;;
71083;SDS011;58741;52.672;13.548;2023-10-13T13:22:37;1.60;;;0.90;;
71083;SDS011;58741;52.672;13.548;2023-10-13T13:25:05;2.33;;;1.02;;
71083;SDS011;58741;52.672;13.548;2023-10-13T13:27:35;1.77;;;0.90;;
71083;SDS011;58741;52.672;13.548;2023-10-13T13:30:03;2.70;;;0.90;;
71083;SDS011;58741;52.672;13.548;2023-10-13T13:32:39;1.67;;;0.80;;
71083;SDS011;58741;52.672;13.548;2023-10-13T13:35:07;0.77;;;0.75;;
71083;SDS011;58741;52.672;13.548;2023-10-13T13:37:39;2.75;;;1.08;;
71083;SDS011;58741;52.672;13.548;2023-10-13T13:40:09;0.95;;;0.75;;
71083;SDS011;58741;52.672;13.548;2023-10-13T13:42:42;2.72;;;1.35;;
71083;SDS011;58741;52.672;13.548;2023-10-13T13:45:16;1.50;;;0.93;;
71083;SDS011;58741;52.672;13.548;2023-10-13T13:47:55;2.30;;;1.25;;
71083;SDS011;58741;52.672;13.548;2023-10-13T13:50:23;2.05;;;0.95;;
71083;SDS011;58741;52.672;13.548;2023-10-13T13:52:51;0.80;;;0.77;;
71083;SDS011;58741;52.672;13.548;2023-10-13T13:55:22;1.00;;;0.75;;
71083;SDS011;58741;52.672;13.548;2023-10-13T13:57:50;0.65;;;0.65;;
71083;SDS011;58741;52.672;13.548;2023-10-13T14:00:17;3.22;;;1.05;;
71083;SDS011;58741;52.672;13.548;2023-10-13T14:02:56;0.95;;;0.85;;
71083;SDS011;58741;52.672;13.548;2023-10-13T14:05:24;0.90;;;0.65;;
71083;SDS011;58741;52.672;13.548;2023-10-13T14:07:51;0.60;;;0.60;;
71083;SDS011;58741;52.672;13.548;2023-10-13T14:10:21;1.83;;;1.15;;
71083;SDS011;58741;52.672;13.548;2023-10-13T14:13:11;1.25;;;0.98;;
71083;SDS011;58741;52.672;13.548;2023-10-13T14:15:41;1.73;;;1.40;;
71083;SDS011;58741;52.672;13.548;2023-10-13T14:18:10;1.33;;;1.00;;
71083;SDS011;58741;52.672;13.548;2023-10-13T14:20:44;2.80;;;1.17;;
71083;SDS011;58741;52.672;13.548;2023-10-13T14:23:11;2.03;;;1.35;;
71083;SDS011;58741;52.672;13.548;2023-10-13T14:25:38;1.65;;;1.27;;
71083;SDS011;58741;52.672;13.548;2023-10-13T14:28:05;1.45;;;0.88;;
71083;SDS011;58741;52.672;13.548;2023-10-13T14:30:33;1.02;;;0.93;;
71083;SDS011;58741;52.672;13.548;2023-10-13T14:32:59;0.90;;;0.88;;
71083;SDS011;58741;52.672;13.548;2023-10-13T14:35:28;1.83;;;1.33;;
71083;SDS011;58741;52.672;13.548;2023-10-13T14:37:55;1.25;;;0.98;;
71083;SDS011;58741;52.672;13.548;2023-10-13T14:40:22;1.30;;;1.10;;
71083;SDS011;58741;52.672;13.548;2023-10-13T14:42:48;1.10;;;0.70;;
71083;SDS011;58741;52.672;13.548;2023-10-13T14:45:15;1.88;;;1.02;;
71083;SDS011;58741;52.672;13.548;2023-10-13T14:47:45;1.20;;;1.10;;
71083;SDS011;58741;52.672;13.548;2023-10-13T14:50:12;1.33;;;0.90;;
71083;SDS011;58741;52.672;13.548;2023-10-13T14:52:47;1.30;;;1.17;;
71083;SDS011;58741;52.672;13.548;2023-10-13T14:55:15;0.80;;;0.80;;
71083;SDS011;58741;52.672;13.548;2023-10-13T14:58:05;1.38;;;1.17;;
71083;SDS011;58741;52.672;13.548;2023-10-13T15:00:34;2.03;;;1.10;;
71083;SDS011;58741;52.672;13.548;2023-10-13T15:03:00;1.45;;;0.82;;
71083;SDS011;58741;52.672;13.548;2023-10-13T15:05:27;1.13;;;0.95;;
71083;SDS011;58741;52.672;13.548;2023-10-13T15:07:59;8.15;;;1.17;;
71083;SDS011;58741;52.672;13.548;2023-10-13T15:10:26;1.80;;;1.02;;
71083;SDS011;58741;52.672;13.548;2023-10-13T15:12:53;1.33;;;1.08;;
71083;SDS011;58741;52.672;13.548;2023-10-13T15:15:19;2.22;;;1.20;;
71083;SDS011;58741;52.672;13.548;2023-10-13T15:17:46;3.47;;;1.20;;
71083;SDS011;58741;52.672;13.548;2023-10-13T15:20:14;2.83;;;1.05;;
71083;SDS011;58741;52.672;13.548;2023-10-13T15:22:44;2.05;;;1.17;;
71083;SDS011;58741;52.672;13.548;2023-10-13T15:25:14;1.30;;;0.90;;
71083;SDS011;58741;52.672;13.548;2023-10-13T15:28:00;0.85;;;0.82;;
71083;SDS011;58741;52.672;13.548;2023-10-13T15:30:34;1.25;;;1.10;;
71083;SDS011;58741;52.672;13.548;2023-10-13T15:33:11;1.23;;;1.10;;
71083;SDS011;58741;52.672;13.548;2023-10-13T15:35:40;1.83;;;1.40;;